Time;durP1;ratioP1;P1;durP2;ratioP2;P2;SDS_P1;SDS_P2;PMS_P1;PMS_P2;Temp;Humidity;BMP_temperature;BMP_pressure;BME280_temperature;BME280_humidity;BME280_pressure;Samples;Min_cycle;Max_cycle;Signal;HPM_P1;HPM_P2
2023/08/17 00:00:46;;;;;;;3.50;1.10;;;;;;;;;;5074051;28;20275;-50
2023/08/17 00:03:12;;;;;;;3.37;1.17;;;;;;;;;;5073331;28;20279;-48
2023/08/17 00:05:38;;;;;;;3.57;1.37;;;;;;;;;;5073925;28;20250;-49
2023/08/17 00:08:05;;;;;;;5.30;1.50;;;;;;;;;;5074026;28;20717;-49
2023/08/17 00:10:30;;;;;;;5.27;1.20;;;;;;;;;;5072196;28;20234;-47
2023/08/17 00:12:57;;;;;;;2.33;1.23;;;;;;;;;;5071659;28;20161;-47
2023/08/17 00:15:23;;;;;;;3.33;1.17;;;;;;;;;;5072146;28;20440;-49
2023/08/17 00:17:49;;;;;;;3.93;1.27;;;;;;;;;;5072968;28;20591;-47
2023/08/17 00:20:16;;;;;;;3.77;1.33;;;;;;;;;;5073594;28;20169;-48
2023/08/17 00:22:43;;;;;;;2.80;1.20;;;;;;;;;;5071859;28;20181;-49
2023/08/17 00:25:09;;;;;;;3.47;1.00;;;;;;;;;;5071317;28;20266;-51
2023/08/17 00:27:35;;;;;;;2.63;1.03;;;;;;;;;;5072418;28;20177;-47
2023/08/17 00:30:01;;;;;;;6.13;1.43;;;;;;;;;;5071149;28;20322;-50
2023/08/17 00:32:27;;;;;;;3.40;1.13;;;;;;;;;;5071517;28;20575;-50
2023/08/17 00:34:53;;;;;;;4.53;1.00;;;;;;;;;;5071993;28;20176;-48
2023/08/17 00:37:19;;;;;;;2.30;1.27;;;;;;;;;;5073339;28;20172;-49
2023/08/17 00:39:44;;;;;;;4.50;1.87;;;;;;;;;;5074536;28;20176;-47
2023/08/17 00:42:10;;;;;;;4.60;1.30;;;;;;;;;;5074435;28;20233;-47
2023/08/17 00:44:36;;;;;;;2.90;1.13;;;;;;;;;;5074463;28;20205;-46
2023/08/17 00:47:02;;;;;;;2.53;1.17;;;;;;;;;;5074371;28;20345;-49
2023/08/17 00:49:29;;;;;;;5.13;1.50;;;;;;;;;;5074019;28;20601;-46
2023/08/17 00:51:55;;;;;;;2.23;1.10;;;;;;;;;;5072833;28;20184;-48
2023/08/17 00:54:25;;;;;;;2.30;1.17;;;;;;;;;;5073099;28;20168;-48
2023/08/17 00:56:52;;;;;;;2.10;1.20;;;;;;;;;;5073351;28;20536;-46
2023/08/17 00:59:18;;;;;;;4.33;1.50;;;;;;;;;;5073579;28;20613;-51
2023/08/17 01:01:44;;;;;;;4.83;1.67;;;;;;;;;;5072729;28;20274;-50
2023/08/17 01:04:11;;;;;;;2.97;1.10;;;;;;;;;;5073368;28;20195;-46
2023/08/17 01:06:37;;;;;;;5.20;1.37;;;;;;;;;;5069989;28;20592;-48
2023/08/17 01:09:03;;;;;;;5.07;1.30;;;;;;;;;;5071266;28;20164;-49
2023/08/17 01:11:36;;;;;;;2.20;1.10;;;;;;;;;;5070034;28;20450;-49
2023/08/17 01:14:08;;;;;;;2.13;1.20;;;;;;;;;;5071254;28;20169;-46
2023/08/17 01:16:38;;;;;;;6.67;1.53;;;;;;;;;;5070922;28;20172;-47
2023/08/17 01:19:07;;;;;;;4.67;1.73;;;;;;;;;;5070439;28;20175;-50
2023/08/17 01:21:42;;;;;;;4.33;1.27;;;;;;;;;;5071042;28;20172;-48
2023/08/17 01:24:09;;;;;;;6.83;1.47;;;;;;;;;;5073239;28;20176;-47
2023/08/17 01:26:35;;;;;;;2.70;1.57;;;;;;;;;;5071944;28;20254;-50
2023/08/17 01:29:01;;;;;;;3.10;1.10;;;;;;;;;;5072697;28;20476;-48
2023/08/17 01:31:53;;;;;;;3.97;1.23;;;;;;;;;;5072984;28;20172;-47
2023/08/17 01:34:20;;;;;;;2.67;1.43;;;;;;;;;;5069995;28;20467;-46
2023/08/17 01:37:01;;;;;;;3.70;1.33;;;;;;;;;;5073800;28;20463;-46
2023/08/17 01:39:31;;;;;;;4.60;1.57;;;;;;;;;;5078508;28;20180;-51
2023/08/17 01:41:57;;;;;;;2.83;1.23;;;;;;;;;;5078131;28;20563;-47
2023/08/17 01:44:24;;;;;;;3.23;1.67;;;;;;;;;;5076769;28;20184;-49
2023/08/17 01:46:51;;;;;;;3.50;1.30;;;;;;;;;;5077647;28;20176;-50
2023/08/17 01:49:17;;;;;;;4.23;1.47;;;;;;;;;;5077456;28;20172;-47
2023/08/17 01:51:43;;;;;;;4.23;1.13;;;;;;;;;;5075998;28;20172;-49
2023/08/17 01:54:09;;;;;;;2.93;1.40;;;;;;;;;;5074068;28;20181;-50
2023/08/17 01:56:35;;;;;;;5.37;1.47;;;;;;;;;;5074047;28;20215;-49
2023/08/17 01:59:01;;;;;;;4.13;1.30;;;;;;;;;;5073840;28;20257;-49
2023/08/17 02:01:28;;;;;;;3.40;1.40;;;;;;;;;;5075036;28;20187;-46
2023/08/17 02:03:54;;;;;;;5.33;1.63;;;;;;;;;;5075710;28;20172;-48
2023/08/17 02:06:20;;;;;;;5.13;1.13;;;;;;;;;;5075324;28;20207;-47
2023/08/17 02:08:46;;;;;;;2.10;1.10;;;;;;;;;;5077182;28;20168;-46
2023/08/17 02:11:12;;;;;;;4.20;1.60;;;;;;;;;;5078500;28;20177;-47
2023/08/17 02:13:38;;;;;;;1.97;1.17;;;;;;;;;;5077519;28;20176;-46
2023/08/17 02:16:05;;;;;;;4.07;2.40;;;;;;;;;;5077974;28;20169;-51
2023/08/17 02:18:33;;;;;;;3.50;1.30;;;;;;;;;;5076948;28;20212;-47
2023/08/17 02:20:59;;;;;;;3.50;1.23;;;;;;;;;;5077385;28;20275;-46
2023/08/17 02:23:25;;;;;;;3.47;1.50;;;;;;;;;;5077810;28;20423;-49
2023/08/17 02:25:51;;;;;;;3.77;1.20;;;;;;;;;;5077487;28;20208;-47
2023/08/17 02:28:17;;;;;;;3.77;1.10;;;;;;;;;;5077249;28;20224;-47
2023/08/17 02:30:44;;;;;;;6.93;1.60;;;;;;;;;;5076126;28;20249;-47
2023/08/17 02:33:10;;;;;;;4.17;1.40;;;;;;;;;;5077488;28;20171;-47
2023/08/17 02:35:36;;;;;;;2.73;1.40;;;;;;;;;;5076557;28;20172;-51
2023/08/17 02:38:01;;;;;;;3.13;1.10;;;;;;;;;;5076696;28;20329;-47
2023/08/17 02:40:28;;;;;;;3.27;1.20;;;;;;;;;;5077077;28;20244;-49
2023/08/17 02:42:54;;;;;;;4.50;1.17;;;;;;;;;;5077703;28;20605;-47
2023/08/17 02:45:20;;;;;;;6.73;1.50;;;;;;;;;;5077210;28;20296;-50
2023/08/17 02:47:46;;;;;;;3.77;1.33;;;;;;;;;;5076176;28;20168;-46
2023/08/17 02:50:12;;;;;;;3.47;1.60;;;;;;;;;;5075538;28;20507;-48
2023/08/17 02:52:38;;;;;;;4.30;1.40;;;;;;;;;;5075034;28;20259;-46
2023/08/17 02:55:04;;;;;;;5.07;1.30;;;;;;;;;;5074286;28;20241;-47
2023/08/17 02:57:30;;;;;;;3.60;1.07;;;;;;;;;;5075074;28;20271;-48
2023/08/17 02:59:56;;;;;;;3.13;1.23;;;;;;;;;;5074944;28;20529;-48
2023/08/17 03:02:22;;;;;;;3.67;1.27;;;;;;;;;;5074699;28;20172;-51
2023/08/17 03:04:48;;;;;;;3.60;1.50;;;;;;;;;;5074311;28;20626;-51
2023/08/17 03:07:14;;;;;;;3.57;1.10;;;;;;;;;;5072831;28;20444;-50
2023/08/17 03:09:40;;;;;;;1.70;1.43;;;;;;;;;;5073581;28;20160;-47
2023/08/17 03:12:06;;;;;;;2.77;1.10;;;;;;;;;;5073392;28;20564;-47
2023/08/17 03:14:32;;;;;;;1.77;1.00;;;;;;;;;;5074640;28;20176;-49
2023/08/17 03:16:58;;;;;;;4.93;1.70;;;;;;;;;;5073480;28;20173;-47
2023/08/17 03:19:24;;;;;;;3.77;1.30;;;;;;;;;;5073498;28;20251;-47
2023/08/17 03:21:50;;;;;;;4.33;1.33;;;;;;;;;;5075699;28;20626;-47
2023/08/17 03:24:16;;;;;;;3.83;1.53;;;;;;;;;;5075469;28;20367;-51
2023/08/17 03:26:42;;;;;;;2.23;1.00;;;;;;;;;;5078082;28;20204;-47
2023/08/17 03:29:09;;;;;;;5.63;1.23;;;;;;;;;;5074740;28;20224;-51
2023/08/17 03:31:35;;;;;;;1.60;0.90;;;;;;;;;;5075164;28;20576;-49
2023/08/17 03:34:01;;;;;;;3.97;1.10;;;;;;;;;;5073794;28;20169;-52
2023/08/17 03:36:28;;;;;;;1.70;1.07;;;;;;;;;;5075748;28;20177;-47
2023/08/17 03:38:54;;;;;;;2.90;0.93;;;;;;;;;;5075980;28;20197;-48
2023/08/17 03:41:23;;;;;;;2.43;1.00;;;;;;;;;;5074787;28;20208;-51
2023/08/17 03:43:49;;;;;;;1.77;0.90;;;;;;;;;;5074173;28;20575;-51
2023/08/17 03:46:15;;;;;;;3.23;1.10;;;;;;;;;;5074667;28;20208;-47
2023/08/17 03:48:41;;;;;;;2.70;0.97;;;;;;;;;;5075305;28;20242;-47
2023/08/17 03:51:07;;;;;;;2.43;1.20;;;;;;;;;;5075067;28;20176;-52
2023/08/17 03:53:33;;;;;;;1.93;1.07;;;;;;;;;;5074597;28;20179;-47
2023/08/17 03:55:59;;;;;;;5.43;1.63;;;;;;;;;;5074514;28;20176;-52
2023/08/17 03:58:33;;;;;;;2.53;0.80;;;;;;;;;;5072977;28;20169;-47
2023/08/17 04:00:59;;;;;;;3.77;1.00;;;;;;;;;;5073680;28;20178;-50
2023/08/17 04:03:25;;;;;;;3.03;0.90;;;;;;;;;;5073403;28;20172;-49
2023/08/17 04:05:51;;;;;;;2.97;1.37;;;;;;;;;;5073031;28;20196;-49
2023/08/17 04:08:17;;;;;;;5.03;1.47;;;;;;;;;;5073530;28;20170;-50
2023/08/17 04:10:43;;;;;;;2.63;1.00;;;;;;;;;;5073164;28;20465;-48
2023/08/17 04:13:09;;;;;;;3.30;0.87;;;;;;;;;;5073889;28;20524;-48
2023/08/17 04:15:35;;;;;;;2.40;0.93;;;;;;;;;;5071835;28;20176;-49
2023/08/17 04:18:01;;;;;;;1.47;1.13;;;;;;;;;;5071938;28;20173;-49
2023/08/17 04:20:27;;;;;;;1.77;0.90;;;;;;;;;;5072927;28;20313;-49
2023/08/17 04:22:53;;;;;;;2.77;0.90;;;;;;;;;;5070873;28;20176;-49
2023/08/17 04:25:19;;;;;;;2.17;1.30;;;;;;;;;;5069924;28;20211;-49
2023/08/17 04:27:45;;;;;;;4.90;1.37;;;;;;;;;;5070599;28;20233;-52
2023/08/17 04:30:11;;;;;;;6.73;1.10;;;;;;;;;;5070141;28;20228;-47
2023/08/17 04:32:37;;;;;;;1.57;1.10;;;;;;;;;;5068736;28;20571;-49
2023/08/17 04:35:04;;;;;;;7.43;1.40;;;;;;;;;;5069673;28;20208;-48
2023/08/17 04:37:30;;;;;;;2.10;1.23;;;;;;;;;;5068802;28;20327;-49
2023/08/17 04:39:55;;;;;;;5.20;1.30;;;;;;;;;;5070017;28;20228;-48
2023/08/17 04:42:21;;;;;;;2.60;1.20;;;;;;;;;;5069720;28;20466;-47
2023/08/17 04:44:47;;;;;;;3.93;1.37;;;;;;;;;;5070857;28;20645;-47
2023/08/17 04:47:14;;;;;;;3.73;1.33;;;;;;;;;;5071474;28;20172;-49
2023/08/17 04:49:40;;;;;;;4.63;1.40;;;;;;;;;;5071333;28;20161;-48
2023/08/17 04:52:06;;;;;;;5.33;1.43;;;;;;;;;;5072391;28;20188;-48
2023/08/17 04:54:31;;;;;;;3.03;1.53;;;;;;;;;;5071797;28;20253;-47
2023/08/17 04:56:57;;;;;;;2.40;1.40;;;;;;;;;;5071871;28;20229;-46
2023/08/17 04:59:23;;;;;;;2.67;1.40;;;;;;;;;;5071881;28;20279;-46
2023/08/17 05:01:49;;;;;;;4.23;1.70;;;;;;;;;;5069888;28;20229;-50
2023/08/17 05:04:15;;;;;;;4.83;1.40;;;;;;;;;;5071965;28;20169;-51
2023/08/17 05:06:42;;;;;;;3.17;1.30;;;;;;;;;;5071591;28;20196;-47
2023/08/17 05:09:09;;;;;;;1.20;1.03;;;;;;;;;;5071553;28;20318;-49
2023/08/17 05:11:35;;;;;;;3.27;1.40;;;;;;;;;;5069341;28;20192;-49
2023/08/17 05:14:01;;;;;;;4.33;1.40;;;;;;;;;;5069756;28;20168;-47
2023/08/17 05:16:27;;;;;;;2.67;1.43;;;;;;;;;;5069739;28;20564;-46
2023/08/17 05:18:53;;;;;;;5.77;1.50;;;;;;;;;;5070107;28;20215;-47
2023/08/17 05:21:19;;;;;;;1.63;1.20;;;;;;;;;;5069657;28;20180;-47
2023/08/17 05:23:45;;;;;;;2.43;1.27;;;;;;;;;;5071489;28;20180;-47
2023/08/17 05:26:11;;;;;;;3.23;1.20;;;;;;;;;;5071177;28;20276;-49
2023/08/17 05:28:37;;;;;;;3.00;1.50;;;;;;;;;;5070066;28;20255;-51
2023/08/17 05:31:04;;;;;;;2.60;1.37;;;;;;;;;;5071415;28;20488;-48
2023/08/17 05:33:30;;;;;;;2.53;1.30;;;;;;;;;;5070520;28;20172;-49
2023/08/17 05:35:56;;;;;;;3.63;1.33;;;;;;;;;;5071260;28;20187;-46
2023/08/17 05:38:22;;;;;;;5.20;1.50;;;;;;;;;;5069963;28;20177;-49
2023/08/17 05:40:48;;;;;;;4.47;1.37;;;;;;;;;;5068739;28;20180;-50
2023/08/17 05:43:14;;;;;;;4.00;1.17;;;;;;;;;;5071779;28;20205;-48
2023/08/17 05:45:39;;;;;;;2.37;1.40;;;;;;;;;;5071655;28;20506;-46
2023/08/17 05:48:06;;;;;;;3.23;1.53;;;;;;;;;;5071321;28;20495;-48
2023/08/17 05:50:32;;;;;;;4.90;1.93;;;;;;;;;;5068994;28;20215;-49
2023/08/17 05:52:58;;;;;;;2.93;1.80;;;;;;;;;;5070671;28;20210;-46
2023/08/17 05:55:24;;;;;;;2.77;1.37;;;;;;;;;;5070034;28;20180;-47
2023/08/17 05:57:50;;;;;;;3.50;1.40;;;;;;;;;;5069596;28;20192;-48
2023/08/17 06:00:16;;;;;;;5.33;1.60;;;;;;;;;;5068263;28;20324;-48
2023/08/17 06:02:43;;;;;;;3.87;1.60;;;;;;;;;;5068464;28;20176;-46
2023/08/17 06:05:09;;;;;;;3.63;1.80;;;;;;;;;;5069659;28;20192;-51
2023/08/17 06:07:35;;;;;;;4.00;1.90;;;;;;;;;;5067535;28;20169;-47
2023/08/17 06:10:04;;;;;;;6.20;2.40;;;;;;;;;;5069375;28;20169;-46
2023/08/17 06:12:30;;;;;;;4.03;1.87;;;;;;;;;;5070998;28;20169;-48
2023/08/17 06:14:56;;;;;;;4.67;1.80;;;;;;;;;;5071293;28;20188;-49
2023/08/17 06:17:22;;;;;;;5.87;2.30;;;;;;;;;;5070554;28;20176;-47
2023/08/17 06:19:48;;;;;;;4.67;2.47;;;;;;;;;;5072526;28;20172;-46
2023/08/17 06:22:15;;;;;;;3.57;1.97;;;;;;;;;;5070914;28;20204;-47
2023/08/17 06:24:41;;;;;;;7.13;2.60;;;;;;;;;;5073637;28;20222;-46
2023/08/17 06:27:07;;;;;;;5.97;2.90;;;;;;;;;;5072903;28;20177;-46
2023/08/17 06:29:33;;;;;;;3.53;2.23;;;;;;;;;;5072801;28;20658;-47
2023/08/17 06:31:59;;;;;;;4.63;2.23;;;;;;;;;;5072395;28;20172;-50
2023/08/17 06:34:25;;;;;;;9.80;2.83;;;;;;;;;;5072351;28;20168;-47
2023/08/17 06:37:02;;;;;;;8.93;2.37;;;;;;;;;;5073035;28;20199;-51
2023/08/17 06:39:28;;;;;;;3.50;1.93;;;;;;;;;;5071166;28;20208;-49
2023/08/17 06:41:54;;;;;;;4.50;1.73;;;;;;;;;;5069513;28;20243;-46
2023/08/17 06:44:20;;;;;;;4.53;2.00;;;;;;;;;;5070465;28;20403;-50
2023/08/17 06:46:47;;;;;;;4.40;2.00;;;;;;;;;;5069746;28;20346;-48
2023/08/17 06:49:13;;;;;;;3.73;2.03;;;;;;;;;;5069065;28;20196;-47
2023/08/17 06:51:39;;;;;;;4.37;2.23;;;;;;;;;;5070100;28;20206;-48
2023/08/17 06:54:05;;;;;;;4.43;1.80;;;;;;;;;;5067058;28;20226;-47
2023/08/17 06:56:31;;;;;;;4.40;2.17;;;;;;;;;;5069346;28;20257;-47
2023/08/17 06:58:57;;;;;;;4.10;2.33;;;;;;;;;;5067405;28;20290;-48
2023/08/17 07:01:23;;;;;;;5.00;2.10;;;;;;;;;;5065717;28;20168;-49
2023/08/17 07:03:49;;;;;;;3.87;1.97;;;;;;;;;;5066337;28;20177;-47
2023/08/17 07:06:15;;;;;;;3.37;1.53;;;;;;;;;;5065571;28;20313;-48
2023/08/17 07:08:41;;;;;;;6.93;1.83;;;;;;;;;;5065801;28;20237;-49
2023/08/17 07:11:08;;;;;;;7.47;2.00;;;;;;;;;;5067573;28;20165;-47
2023/08/17 07:13:34;;;;;;;3.17;1.60;;;;;;;;;;5066893;28;20177;-49
2023/08/17 07:16:00;;;;;;;6.53;1.80;;;;;;;;;;5067228;28;20203;-50
2023/08/17 07:18:26;;;;;;;4.40;1.57;;;;;;;;;;5065982;28;20184;-49
2023/08/17 07:20:52;;;;;;;3.27;1.50;;;;;;;;;;5067771;28;20169;-49
2023/08/17 07:23:18;;;;;;;3.10;1.30;;;;;;;;;;5067036;28;20177;-48
2023/08/17 07:25:44;;;;;;;5.97;1.77;;;;;;;;;;5066789;28;20465;-50
2023/08/17 07:28:10;;;;;;;5.27;1.63;;;;;;;;;;5067530;28;20177;-46
2023/08/17 07:30:36;;;;;;;3.37;1.40;;;;;;;;;;5068962;28;20173;-48
2023/08/17 07:33:02;;;;;;;5.90;2.20;;;;;;;;;;5067718;28;20318;-47
2023/08/17 07:35:28;;;;;;;6.50;1.73;;;;;;;;;;5068391;28;20200;-49
2023/08/17 07:37:54;;;;;;;4.47;2.00;;;;;;;;;;5067370;28;20168;-46
2023/08/17 07:40:20;;;;;;;5.43;1.73;;;;;;;;;;5066864;28;20261;-48
2023/08/17 07:42:47;;;;;;;4.80;1.67;;;;;;;;;;5067517;28;20180;-48
2023/08/17 07:45:12;;;;;;;1.33;1.00;;;;;;;;;;5069824;28;20564;-46
2023/08/17 07:47:38;;;;;;;3.37;1.33;;;;;;;;;;5068949;28;20169;-48
2023/08/17 07:50:05;;;;;;;5.23;1.90;;;;;;;;;;5069590;28;20169;-48
2023/08/17 07:52:31;;;;;;;2.00;1.10;;;;;;;;;;5067716;28;20192;-47
2023/08/17 07:54:58;;;;;;;2.87;1.27;;;;;;;;;;5067690;28;20260;-47
2023/08/17 07:57:24;;;;;;;2.47;1.50;;;;;;;;;;5064782;28;20189;-48
2023/08/17 07:59:51;;;;;;;4.43;1.80;;;;;;;;;;5065268;28;20185;-47
2023/08/17 08:02:17;;;;;;;4.40;1.60;;;;;;;;;;5065090;28;20467;-50
2023/08/17 08:04:43;;;;;;;3.27;1.43;;;;;;;;;;5064827;28;20429;-48
2023/08/17 08:07:09;;;;;;;2.80;1.77;;;;;;;;;;5067485;28;20200;-48
2023/08/17 08:09:35;;;;;;;6.50;2.53;;;;;;;;;;5066951;28;20437;-49
2023/08/17 08:12:01;;;;;;;2.73;1.60;;;;;;;;;;5065513;28;20168;-46
2023/08/17 08:14:27;;;;;;;3.23;1.83;;;;;;;;;;5066722;28;20384;-48
2023/08/17 08:16:53;;;;;;;4.37;1.70;;;;;;;;;;5067196;28;20552;-47
2023/08/17 08:19:19;;;;;;;4.40;1.73;;;;;;;;;;5068736;28;20234;-51
2023/08/17 08:21:45;;;;;;;5.77;1.97;;;;;;;;;;5068311;28;20245;-49
2023/08/17 08:24:11;;;;;;;3.27;1.80;;;;;;;;;;5066427;28;20177;-47
2023/08/17 08:26:38;;;;;;;5.53;2.13;;;;;;;;;;5066903;28;20231;-47
2023/08/17 08:29:04;;;;;;;2.73;1.40;;;;;;;;;;5065230;28;20228;-48
2023/08/17 08:31:30;;;;;;;3.40;1.50;;;;;;;;;;5064955;28;20630;-46
2023/08/17 08:33:56;;;;;;;1.97;1.30;;;;;;;;;;5066546;28;20169;-48
2023/08/17 08:36:23;;;;;;;1.63;1.20;;;;;;;;;;5067086;28;20173;-54
2023/08/17 08:38:49;;;;;;;3.00;1.40;;;;;;;;;;5068460;28;20567;-47
2023/08/17 08:41:15;;;;;;;3.20;1.57;;;;;;;;;;5066414;28;20176;-50
2023/08/17 08:43:41;;;;;;;2.73;1.20;;;;;;;;;;5065962;28;20177;-48
2023/08/17 08:46:07;;;;;;;1.97;1.50;;;;;;;;;;5065371;28;20592;-49
2023/08/17 08:48:34;;;;;;;3.53;1.30;;;;;;;;;;5063658;28;20172;-47
2023/08/17 08:51:01;;;;;;;2.90;1.70;;;;;;;;;;5063494;28;20396;-47
2023/08/17 08:53:38;;;;;;;3.43;1.30;;;;;;;;;;5063997;28;20219;-47
2023/08/17 08:56:04;;;;;;;5.40;1.67;;;;;;;;;;5066694;28;20333;-47
2023/08/17 08:58:31;;;;;;;2.50;1.63;;;;;;;;;;5066557;28;20181;-47
2023/08/17 09:00:58;;;;;;;2.97;1.67;;;;;;;;;;5068223;28;20180;-47
2023/08/17 09:03:25;;;;;;;5.53;2.00;;;;;;;;;;5068340;28;20555;-48
2023/08/17 09:05:51;;;;;;;2.77;1.93;;;;;;;;;;5067579;28;20342;-50
2023/08/17 09:08:22;;;;;;;2.23;1.20;;;;;;;;;;5068545;28;20290;-53
2023/08/17 09:10:48;;;;;;;2.30;1.63;;;;;;;;;;5066392;28;20169;-49
2023/08/17 09:13:14;;;;;;;2.93;1.90;;;;;;;;;;5068379;28;20237;-52
2023/08/17 09:15:40;;;;;;;4.93;1.60;;;;;;;;;;5066641;28;20173;-49
2023/08/17 09:18:09;;;;;;;4.33;1.60;;;;;;;;;;5064604;28;20176;-48
2023/08/17 09:20:39;;;;;;;3.17;2.03;;;;;;;;;;5062996;28;20172;-47
2023/08/17 09:23:11;;;;;;;5.30;1.60;;;;;;;;;;5063420;28;20168;-49
2023/08/17 09:25:38;;;;;;;2.70;1.80;;;;;;;;;;5062758;28;20588;-50
2023/08/17 09:28:09;;;;;;;2.47;1.67;;;;;;;;;;5061030;28;20254;-47
2023/08/17 09:30:49;;;;;;;5.07;2.57;;;;;;;;;;5060927;28;20235;-49
2023/08/17 09:33:15;;;;;;;3.27;2.13;;;;;;;;;;5064136;28;20425;-46
2023/08/17 09:35:42;;;;;;;3.20;1.73;;;;;;;;;;5063455;28;20501;-47
2023/08/17 09:38:08;;;;;;;2.43;1.70;;;;;;;;;;5065839;28;20556;-46
2023/08/17 09:40:34;;;;;;;2.40;1.80;;;;;;;;;;5061907;28;20274;-47
2023/08/17 09:43:00;;;;;;;2.03;1.00;;;;;;;;;;5056548;28;20533;-46
2023/08/17 09:45:28;;;;;;;2.03;1.40;;;;;;;;;;5072691;28;20211;-48
2023/08/17 09:48:05;;;;;;;1.30;1.00;;;;;;;;;;5059122;28;20260;-49
2023/08/17 09:50:32;;;;;;;1.23;1.13;;;;;;;;;;5052457;28;20173;-48
2023/08/17 09:52:58;;;;;;;2.50;1.37;;;;;;;;;;5048886;28;20191;-50
2023/08/17 09:55:24;;;;;;;2.80;1.40;;;;;;;;;;5045591;28;20177;-50
2023/08/17 09:57:51;;;;;;;1.57;1.30;;;;;;;;;;5047814;28;20208;-49
2023/08/17 10:00:17;;;;;;;2.27;1.20;;;;;;;;;;5050331;28;20169;-47
2023/08/17 10:02:45;;;;;;;2.80;1.30;;;;;;;;;;5047401;28;20215;-47
2023/08/17 10:05:12;;;;;;;2.20;1.30;;;;;;;;;;5045323;28;20201;-48
2023/08/17 10:07:41;;;;;;;3.23;1.10;;;;;;;;;;5045777;28;20174;-47
2023/08/17 10:10:08;;;;;;;2.00;1.00;;;;;;;;;;5045227;28;20168;-51
2023/08/17 10:12:38;;;;;;;1.37;0.93;;;;;;;;;;5045902;28;20601;-49
2023/08/17 10:15:07;;;;;;;1.40;0.97;;;;;;;;;;5044519;28;20170;-49
2023/08/17 10:17:42;;;;;;;1.37;0.90;;;;;;;;;;5046955;28;20278;-50
2023/08/17 10:20:09;;;;;;;0.90;0.90;;;;;;;;;;5048344;28;20180;-49
2023/08/17 10:22:49;;;;;;;1.20;0.80;;;;;;;;;;5045583;28;20412;-51
2023/08/17 10:25:15;;;;;;;1.43;0.97;;;;;;;;;;5045144;28;20213;-48
2023/08/17 10:27:42;;;;;;;1.10;1.00;;;;;;;;;;5043523;28;20173;-51
2023/08/17 10:30:09;;;;;;;1.50;1.03;;;;;;;;;;5044408;28;20429;-47
2023/08/17 10:32:35;;;;;;;1.13;1.00;;;;;;;;;;5044975;28;20173;-48
2023/08/17 10:35:03;;;;;;;1.43;0.90;;;;;;;;;;5045625;28;20220;-48
2023/08/17 10:37:29;;;;;;;1.43;1.10;;;;;;;;;;5044610;28;20388;-48
2023/08/17 10:39:55;;;;;;;1.50;1.20;;;;;;;;;;5045214;28;20173;-49
2023/08/17 10:42:36;;;;;;;2.57;1.13;;;;;;;;;;5046625;28;20247;-47
2023/08/17 10:45:09;;;;;;;1.97;1.30;;;;;;;;;;5047664;28;20201;-46
2023/08/17 10:47:36;;;;;;;1.70;1.10;;;;;;;;;;5047223;28;20548;-48
2023/08/17 10:50:09;;;;;;;1.47;1.20;;;;;;;;;;5049026;28;20405;-47
2023/08/17 10:52:37;;;;;;;1.33;0.90;;;;;;;;;;5049663;28;20169;-47
2023/08/17 10:55:08;;;;;;;2.03;1.37;;;;;;;;;;5049156;28;20529;-47
2023/08/17 10:57:44;;;;;;;2.00;1.00;;;;;;;;;;5046984;28;20554;-48
2023/08/17 11:00:15;;;;;;;1.47;1.37;;;;;;;;;;5046736;28;20593;-49
2023/08/17 11:02:43;;;;;;;1.73;1.20;;;;;;;;;;5048173;28;20169;-49
2023/08/17 11:05:12;;;;;;;2.50;1.70;;;;;;;;;;5048218;28;20399;-49
2023/08/17 11:07:42;;;;;;;4.63;1.47;;;;;;;;;;5047304;28;20176;-50
2023/08/17 11:10:12;;;;;;;1.80;1.60;;;;;;;;;;5047699;28;20174;-47
2023/08/17 11:12:38;;;;;;;2.30;1.20;;;;;;;;;;5049638;28;20302;-49
2023/08/17 11:15:04;;;;;;;2.07;1.23;;;;;;;;;;5047512;28;20181;-49
2023/08/17 11:17:30;;;;;;;2.40;1.50;;;;;;;;;;5048581;28;20573;-47
2023/08/17 11:19:56;;;;;;;1.63;1.10;;;;;;;;;;5049980;28;20166;-48
2023/08/17 11:22:22;;;;;;;3.37;1.50;;;;;;;;;;5049831;28;20161;-47
2023/08/17 11:24:48;;;;;;;2.03;1.30;;;;;;;;;;5050236;28;20310;-46
2023/08/17 11:27:15;;;;;;;2.17;1.30;;;;;;;;;;5049982;28;20264;-47
2023/08/17 11:29:41;;;;;;;2.27;1.50;;;;;;;;;;5048049;28;20233;-46
2023/08/17 11:32:09;;;;;;;1.50;1.40;;;;;;;;;;5046591;28;20234;-49
2023/08/17 11:34:36;;;;;;;1.93;1.47;;;;;;;;;;5044545;28;20511;-47
2023/08/17 11:37:02;;;;;;;1.63;1.47;;;;;;;;;;5044058;28;20174;-48
2023/08/17 11:39:28;;;;;;;3.33;1.67;;;;;;;;;;5044746;28;20230;-48
2023/08/17 11:41:54;;;;;;;2.47;1.37;;;;;;;;;;5045435;28;20177;-48
2023/08/17 11:44:21;;;;;;;3.10;1.47;;;;;;;;;;5045154;28;20177;-50
2023/08/17 11:46:47;;;;;;;2.10;1.37;;;;;;;;;;5045232;28;20209;-47
2023/08/17 11:49:13;;;;;;;3.63;1.23;;;;;;;;;;5045822;28;20280;-48
2023/08/17 11:51:40;;;;;;;2.07;1.27;;;;;;;;;;5045584;28;20165;-47
2023/08/17 11:54:07;;;;;;;2.80;1.60;;;;;;;;;;5045828;28;20180;-49
2023/08/17 11:56:33;;;;;;;3.80;1.70;;;;;;;;;;5045403;28;20177;-48
2023/08/17 11:59:08;;;;;;;2.67;1.60;;;;;;;;;;5046090;28;20564;-47
2023/08/17 12:01:35;;;;;;;2.77;1.53;;;;;;;;;;5046927;28;20177;-48
2023/08/17 12:04:01;;;;;;;5.20;1.50;;;;;;;;;;5045305;28;20491;-50
2023/08/17 12:06:27;;;;;;;4.90;1.70;;;;;;;;;;5045829;28;20269;-49
2023/08/17 12:08:53;;;;;;;1.97;1.33;;;;;;;;;;5045182;28;20173;-46
2023/08/17 12:11:19;;;;;;;2.60;1.90;;;;;;;;;;5045173;28;20166;-48
2023/08/17 12:13:49;;;;;;;4.77;2.20;;;;;;;;;;5044267;28;20461;-51
2023/08/17 12:16:16;;;;;;;4.60;2.37;;;;;;;;;;5042724;28;20203;-47
2023/08/17 12:18:44;;;;;;;4.37;1.80;;;;;;;;;;5042864;28;20285;-46
2023/08/17 12:21:10;;;;;;;3.50;1.90;;;;;;;;;;5041397;28;20235;-48
2023/08/17 12:23:36;;;;;;;2.80;2.10;;;;;;;;;;5042280;28;20210;-50
2023/08/17 12:26:02;;;;;;;3.07;2.10;;;;;;;;;;5045885;28;20200;-52
2023/08/17 12:28:28;;;;;;;4.23;2.10;;;;;;;;;;5044545;28;20237;-49
2023/08/17 12:30:58;;;;;;;2.03;1.63;;;;;;;;;;5045922;28;20161;-50
2023/08/17 12:33:24;;;;;;;3.13;1.83;;;;;;;;;;5028546;28;20173;-47
2023/08/17 12:35:50;;;;;;;2.10;1.70;;;;;;;;;;5047870;28;20234;-47
2023/08/17 12:38:16;;;;;;;2.97;1.50;;;;;;;;;;5045492;28;20185;-48
2023/08/17 12:40:42;;;;;;;2.57;1.63;;;;;;;;;;5046080;28;20178;-52
2023/08/17 12:43:08;;;;;;;3.50;2.23;;;;;;;;;;5045995;28;20197;-50
2023/08/17 12:45:34;;;;;;;2.33;1.60;;;;;;;;;;5046424;28;20286;-48
2023/08/17 12:48:00;;;;;;;2.50;1.37;;;;;;;;;;5047387;28;20233;-49
2023/08/17 12:50:26;;;;;;;5.23;2.10;;;;;;;;;;5048047;28;20191;-52
2023/08/17 12:52:52;;;;;;;3.57;1.63;;;;;;;;;;5049327;28;20448;-47
2023/08/17 12:55:18;;;;;;;2.90;1.80;;;;;;;;;;5049671;28;20256;-51
2023/08/17 12:57:45;;;;;;;4.30;1.83;;;;;;;;;;5049262;28;20176;-47
2023/08/17 13:00:11;;;;;;;3.30;1.73;;;;;;;;;;5048708;28;20170;-47
2023/08/17 13:02:37;;;;;;;2.23;1.50;;;;;;;;;;5047247;28;20215;-47
2023/08/17 13:05:03;;;;;;;1.93;1.73;;;;;;;;;;5047339;28;20191;-50
2023/08/17 13:07:30;;;;;;;3.77;2.03;;;;;;;;;;5046547;28;20165;-47
2023/08/17 13:09:56;;;;;;;2.53;1.93;;;;;;;;;;5044092;28;20484;-47
2023/08/17 13:12:22;;;;;;;3.03;1.90;;;;;;;;;;5043537;28;20283;-47
2023/08/17 13:14:48;;;;;;;4.27;1.60;;;;;;;;;;5041174;28;20169;-48
2023/08/17 13:17:16;;;;;;;4.00;1.70;;;;;;;;;;5041785;28;20176;-47
2023/08/17 13:19:42;;;;;;;1.10;0.93;;;;;;;;;;5041817;28;20616;-48
2023/08/17 13:22:10;;;;;;;1.73;0.80;;;;;;;;;;5041085;28;20284;-50
2023/08/17 13:24:37;;;;;;;3.10;1.33;;;;;;;;;;5040028;28;20743;-48
2023/08/17 13:27:03;;;;;;;1.37;0.90;;;;;;;;;;5038766;28;20205;-47
2023/08/17 13:29:29;;;;;;;2.50;1.00;;;;;;;;;;5040430;28;20225;-49
2023/08/17 13:31:56;;;;;;;2.17;1.03;;;;;;;;;;5039479;28;20365;-50
2023/08/17 13:34:22;;;;;;;1.33;0.83;;;;;;;;;;5042844;28;20297;-48
2023/08/17 13:36:48;;;;;;;1.00;0.80;;;;;;;;;;5044230;28;20425;-47
2023/08/17 13:39:14;;;;;;;1.17;0.73;;;;;;;;;;5045135;28;20634;-50
2023/08/17 13:41:40;;;;;;;0.77;0.77;;;;;;;;;;5046956;28;20474;-49
2023/08/17 13:44:06;;;;;;;0.73;0.73;;;;;;;;;;5049416;28;20546;-47
2023/08/17 13:46:33;;;;;;;1.63;0.80;;;;;;;;;;5049583;28;20384;-50
2023/08/17 13:48:59;;;;;;;1.97;1.20;;;;;;;;;;5052988;28;20165;-48
2023/08/17 13:51:25;;;;;;;3.73;1.10;;;;;;;;;;5053528;28;20162;-48
2023/08/17 13:53:51;;;;;;;1.37;0.90;;;;;;;;;;5053763;28;20593;-49
2023/08/17 13:56:17;;;;;;;1.77;1.47;;;;;;;;;;5050180;28;20229;-47
2023/08/17 13:58:43;;;;;;;0.90;0.80;;;;;;;;;;5046568;28;20234;-47
2023/08/17 14:01:11;;;;;;;1.17;1.07;;;;;;;;;;5046822;28;20177;-48
2023/08/17 14:03:37;;;;;;;1.10;0.70;;;;;;;;;;5046066;28;20177;-49
2023/08/17 14:06:03;;;;;;;1.03;0.80;;;;;;;;;;5045325;28;20197;-47
2023/08/17 14:08:29;;;;;;;2.10;0.90;;;;;;;;;;5044655;28;20252;-49
2023/08/17 14:10:56;;;;;;;0.90;0.80;;;;;;;;;;5046741;28;20204;-48
2023/08/17 14:13:22;;;;;;;2.37;1.27;;;;;;;;;;5047028;28;20199;-51
2023/08/17 14:15:48;;;;;;;3.77;1.10;;;;;;;;;;5047892;28;20182;-47
2023/08/17 14:18:14;;;;;;;2.03;1.50;;;;;;;;;;5047317;28;20184;-52
2023/08/17 14:20:40;;;;;;;1.00;0.90;;;;;;;;;;5046969;28;20421;-49
2023/08/17 14:23:06;;;;;;;3.13;0.80;;;;;;;;;;5045743;28;20170;-50
2023/08/17 14:25:33;;;;;;;1.33;0.73;;;;;;;;;;5044909;28;20272;-47
2023/08/17 14:27:59;;;;;;;4.43;1.33;;;;;;;;;;5045781;28;20228;-50
2023/08/17 14:30:26;;;;;;;4.73;1.00;;;;;;;;;;5047209;28;20407;-49
2023/08/17 14:32:52;;;;;;;1.10;0.80;;;;;;;;;;5047561;28;20253;-47
2023/08/17 14:35:18;;;;;;;1.00;0.83;;;;;;;;;;5045974;28;20301;-47
2023/08/17 14:37:44;;;;;;;2.23;1.10;;;;;;;;;;5048059;28;20185;-50
2023/08/17 14:40:10;;;;;;;2.53;1.43;;;;;;;;;;5049726;28;20180;-51